Time;durP1;ratioP1;P1;durP2;ratioP2;P2;SDS_P1;SDS_P2;PMS_P1;PMS_P2;Temp;Humidity;BMP_temperature;BMP_pressure;BME280_temperature;BME280_humidity;BME280_pressure;Samples;Min_cycle;Max_cycle;Signal;HPM_P1;HPM_P2
2022/05/11 00:01:29;;;;;;;8.25;4.00;;;16.40;99.90;;;;;;10411385;28;20335;-83
2022/05/11 00:06:50;;;;;;;7.03;4.82;;;16.40;99.90;;;;;;10399671;28;20226;-84
2022/05/11 00:12:12;;;;;;;6.07;4.22;;;16.40;99.90;;;;;;10409104;28;20203;-83
2022/05/11 00:17:33;;;;;;;8.13;4.30;;;16.40;99.90;;;;;;10423410;28;20238;-82
2022/05/11 00:22:56;;;;;;;5.28;3.90;;;16.40;99.90;;;;;;10423642;28;20200;-83
2022/05/11 00:28:17;;;;;;;9.27;3.85;;;16.40;99.90;;;;;;10437023;28;20197;-82
2022/05/11 00:33:39;;;;;;;6.13;3.88;;;16.30;99.90;;;;;;10408957;28;20259;-82
2022/05/11 00:39:00;;;;;;;5.85;3.53;;;16.30;99.90;;;;;;10436477;28;20227;-83
2022/05/11 00:44:21;;;;;;;5.13;3.50;;;16.30;99.90;;;;;;10422542;28;20384;-82
2022/05/11 00:49:50;;;;;;;8.15;4.13;;;16.30;99.90;;;;;;10436237;28;20544;-83
2022/05/11 00:55:20;;;;;;;10.32;4.03;;;16.20;99.90;;;;;;10422787;28;20238;-83
2022/05/11 01:00:46;;;;;;;6.72;4.07;;;16.20;99.90;;;;;;10435649;28;20204;-83
2022/05/11 01:06:10;;;;;;;6.82;3.88;;;16.20;99.90;;;;;;10435690;28;20210;-82
2022/05/11 01:11:35;;;;;;;11.10;4.40;;;16.20;99.90;;;;;;10380778;28;20279;-82
2022/05/11 01:16:58;;;;;;;7.40;3.63;;;16.20;99.90;;;;;;10401168;28;20473;-83
2022/05/11 01:22:29;;;;;;;6.90;3.60;;;16.20;99.90;;;;;;10436104;28;20194;-83
2022/05/11 01:27:59;;;;;;;6.20;3.85;;;16.20;1.00;;;;;;10436532;28;20199;-83
2022/05/11 01:33:23;;;;;;;11.05;3.80;;;16.10;1.00;;;;;;10435776;28;20237;-82
2022/05/11 01:38:46;;;;;;;9.05;4.00;;;16.10;1.00;;;;;;10435064;28;20250;-83
2022/05/11 01:44:11;;;;;;;5.22;3.70;;;16.10;1.00;;;;;;10421303;28;20202;-83
2022/05/11 01:49:33;;;;;;;6.25;3.80;;;16.20;1.00;;;;;;10421106;28;20265;-82
2022/05/11 01:54:55;;;;;;;6.00;3.60;;;16.10;1.00;;;;;;10435560;28;20306;-83
2022/05/11 02:00:17;;;;;;;12.73;4.63;;;16.10;1.00;;;;;;10420424;28;20391;-83
2022/05/11 02:11:18;;;;;;;5.93;3.97;;;16.10;1.00;;;;;;10380019;28;20208;-82
2022/05/11 02:16:40;;;;;;;6.28;4.20;;;16.10;1.00;;;;;;10386397;28;20545;-83
2022/05/11 02:22:01;;;;;;;8.73;4.28;;;16.10;1.00;;;;;;10434617;28;20195;-82
2022/05/11 02:27:23;;;;;;;8.32;4.75;;;16.10;1.00;;;;;;10426119;28;20200;-83
2022/05/11 02:32:44;;;;;;;10.07;4.45;;;16.00;1.00;;;;;;10427640;28;20239;-81
2022/05/11 02:38:11;;;;;;;10.10;4.75;;;16.00;1.00;;;;;;10441025;28;20265;-83
2022/05/11 02:43:32;;;;;;;6.32;4.57;;;16.00;1.00;;;;;;10441035;28;20490;-83
2022/05/11 02:48:54;;;;;;;9.75;4.65;;;15.90;55.90;;;;;;10440642;28;20196;-83
2022/05/11 02:54:15;;;;;;;7.18;4.82;;;15.90;99.90;;;;;;10426840;28;20560;-83
2022/05/11 02:59:37;;;;;;;8.75;4.40;;;15.90;99.90;;;;;;10439711;28;20235;-83
2022/05/11 03:04:58;;;;;;;9.82;4.22;;;15.90;99.90;;;;;;10439201;28;20394;-82
2022/05/11 03:10:20;;;;;;;5.72;3.58;;;15.90;1.00;;;;;;10439954;28;20282;-83
2022/05/11 03:15:42;;;;;;;8.02;4.97;;;16.00;1.00;;;;;;10425962;28;20525;-83
2022/05/11 03:21:04;;;;;;;8.63;4.25;;;15.90;1.00;;;;;;10425947;28;20195;-83
2022/05/11 03:26:25;;;;;;;12.38;4.05;;;15.90;1.00;;;;;;10425504;28;20201;-83
2022/05/11 03:37:31;;;;;;;10.80;4.47;;;15.80;1.00;;;;;;10395001;28;20305;-82
2022/05/11 03:42:52;;;;;;;6.25;3.83;;;15.80;1.00;;;;;;10378830;28;20213;-83
2022/05/11 03:48:16;;;;;;;6.18;3.55;;;15.70;99.90;;;;;;10381264;28;20223;-83
2022/05/11 03:53:39;;;;;;;5.18;3.20;;;15.80;1.00;;;;;;10394988;28;20351;-83
2022/05/11 03:59:00;;;;;;;5.85;3.88;;;15.80;1.00;;;;;;10378019;28;20240;-83
2022/05/11 04:04:21;;;;;;;7.22;4.72;;;15.80;99.90;;;;;;10377615;28;20203;-83
2022/05/11 04:09:43;;;;;;;10.65;5.20;;;15.80;1.00;;;;;;10410209;28;20285;-83
2022/05/11 04:15:06;;;;;;;7.35;4.20;;;15.80;1.00;;;;;;10423668;28;20210;-83
2022/05/11 04:20:28;;;;;;;7.70;4.47;;;15.70;1.00;;;;;;10409699;28;20253;-84
2022/05/11 04:25:49;;;;;;;8.07;4.80;;;15.70;1.00;;;;;;10422654;28;20213;-83
2022/05/11 04:31:12;;;;;;;7.47;4.55;;;15.70;99.90;;;;;;10409589;28;20446;-83
2022/05/11 04:36:34;;;;;;;8.48;4.90;;;15.70;1.00;;;;;;10436151;28;20278;-83
2022/05/11 04:41:55;;;;;;;13.93;6.90;;;15.70;99.90;;;;;;10422853;28;20240;-83
2022/05/11 04:47:17;;;;;;;13.98;8.25;;;15.70;1.00;;;;;;10407924;28;20198;-83
2022/05/11 04:52:39;;;;;;;13.52;8.20;;;15.70;1.00;;;;;;10422100;28;20203;-83
2022/05/11 04:58:01;;;;;;;8.60;6.07;;;15.70;1.00;;;;;;10421645;28;20239;-83
2022/05/11 05:03:22;;;;;;;9.63;7.28;;;15.60;1.00;;;;;;10421673;28;20230;-83
2022/05/11 05:08:44;;;;;;;11.80;8.43;;;15.60;1.00;;;;;;10435522;28;20191;-84
2022/05/11 05:14:06;;;;;;;20.13;14.45;;;15.60;1.00;;;;;;10422245;28;20186;-83
2022/05/11 05:19:28;;;;;;;14.65;10.65;;;15.50;1.00;;;;;;10408291;28;20224;-92
2022/05/11 05:24:50;;;;;;;11.65;8.48;;;15.50;1.00;;;;;;10422832;28;20207;-90
2022/05/11 05:35:52;;;;;;;8.30;5.57;;;15.40;1.00;;;;;;10435452;28;20260;-90
2022/05/11 05:41:13;;;;;;;10.25;5.22;;;15.40;1.00;;;;;;10422279;28;20202;-86
2022/05/11 05:46:36;;;;;;;9.25;5.05;;;15.40;1.00;;;;;;10407776;28;20191;-83
2022/05/11 05:52:02;;;;;;;12.05;8.60;;;15.50;1.00;;;;;;10407460;28;20202;-85
2022/05/11 05:57:24;;;;;;;13.10;7.28;;;15.60;1.00;;;;;;10421214;28;20434;-85
2022/05/11 06:02:45;;;;;;;8.75;6.00;;;15.70;1.00;;;;;;10417833;28;20195;-90
2022/05/11 06:08:08;;;;;;;6.00;4.40;;;16.00;1.00;;;;;;10428590;28;20200;-90
2022/05/11 06:13:29;;;;;;;6.90;4.43;;;16.10;1.00;;;;;;10429385;28;20512;-89
2022/05/11 06:18:50;;;;;;;9.30;5.65;;;16.20;1.00;;;;;;10428432;28;20306;-90
2022/05/11 06:24:12;;;;;;;8.60;5.53;;;16.30;1.00;;;;;;10443923;28;20252;-88
2022/05/11 06:29:36;;;;;;;13.13;5.60;;;16.50;1.00;;;;;;10414593;28;20279;-84
2022/05/11 06:34:57;;;;;;;7.45;4.60;;;16.70;1.00;;;;;;10427506;28;20266;-84
2022/05/11 06:40:19;;;;;;;8.57;4.18;;;16.90;1.00;;;;;;10412768;28;20235;-82
2022/05/11 06:45:41;;;;;;;6.28;5.10;;;17.20;1.00;;;;;;10440908;28;20196;-83
2022/05/11 06:51:03;;;;;;;16.63;7.47;;;17.20;1.00;;;;;;10440223;28;20208;-83
2022/05/11 07:02:06;;;;;;;10.82;5.05;;;17.20;1.00;;;;;;10414987;28;20214;-82
2022/05/11 07:07:28;;;;;;;6.13;4.35;;;17.20;1.00;;;;;;10436688;28;20196;-82
2022/05/11 07:12:50;;;;;;;7.85;4.03;;;17.10;1.00;;;;;;10425787;28;20386;-83
2022/05/11 07:18:11;;;;;;;7.28;4.50;;;17.10;1.00;;;;;;10440326;28;20215;-82
2022/05/11 07:23:33;;;;;;;6.60;4.75;;;17.20;1.00;;;;;;10389297;28;20254;-81
2022/05/11 07:28:54;;;;;;;15.68;7.55;;;17.30;1.00;;;;;;10407051;28;20193;-90
2022/05/11 07:34:15;;;;;;;11.02;6.90;;;17.70;1.00;;;;;;10447669;28;20243;-82
2022/05/11 07:39:37;;;;;;;8.45;4.50;;;18.10;1.00;;;;;;10447194;28;20232;-82
2022/05/11 07:44:58;;;;;;;7.00;3.85;;;18.20;1.00;;;;;;10419463;28;20556;-81
2022/05/11 07:50:20;;;;;;;4.60;3.90;;;18.20;1.00;;;;;;10433892;28;20196;-83
2022/05/11 07:55:42;;;;;;;6.65;4.13;;;18.10;1.00;;;;;;10405263;28;20206;-84
2022/05/11 08:01:03;;;;;;;7.72;4.93;;;17.90;1.00;;;;;;10422566;28;20197;-83
2022/05/11 08:06:25;;;;;;;6.80;4.45;;;17.80;1.00;;;;;;10425256;28;20220;-83
2022/05/11 08:11:47;;;;;;;5.25;4.68;;;17.70;1.00;;;;;;10419729;28;20211;-87
2022/05/11 08:17:09;;;;;;;7.13;4.93;;;17.70;1.00;;;;;;10448686;28;20723;-82
2022/05/11 08:22:30;;;;;;;7.10;4.95;;;17.80;1.00;;;;;;10417646;28;20295;-85
2022/05/11 08:27:53;;;;;;;8.45;5.32;;;17.90;1.00;;;;;;10406140;28;20197;-84
2022/05/11 08:33:28;;;;;;;5.35;4.72;;;17.90;1.00;;;;;;10419406;28;20252;-89
2022/05/11 08:39:04;;;;;;;7.07;5.05;;;17.90;1.00;;;;;;10396985;28;20308;-89
2022/05/11 08:44:33;;;;;;;5.85;4.70;;;18.00;1.00;;;;;;10411985;28;20188;-91
2022/05/11 08:50:16;;;;;;;7.13;5.13;;;18.10;1.00;;;;;;10405711;28;20205;-84
2022/05/11 08:55:54;;;;;;;7.18;4.45;;;18.20;1.00;;;;;;10419026;28;20203;-89
2022/05/11 09:01:28;;;;;;;8.40;4.80;;;18.40;1.00;;;;;;10424657;28;20232;-86
2022/05/11 09:06:50;;;;;;;5.15;4.32;;;18.30;1.00;;;;;;10418700;28;20534;-86
2022/05/11 09:12:13;;;;;;;6.30;4.63;;;18.30;1.00;;;;;;10405742;28;20261;-85
2022/05/11 09:17:37;;;;;;;5.57;4.15;;;18.30;1.00;;;;;;10418160;28;20270;-84
2022/05/11 09:23:02;;;;;;;7.88;4.07;;;18.30;1.00;;;;;;10410338;28;20402;-87
2022/05/11 09:28:33;;;;;;;7.57;3.72;;;18.40;1.00;;;;;;10394861;28;20255;-86
2022/05/11 09:34:04;;;;;;;4.82;3.72;;;18.50;1.00;;;;;;10380347;28;20251;-86
2022/05/11 09:40:14;;;;;;;7.55;3.58;;;18.70;1.00;;;;;;10389754;28;20422;-86
2022/05/11 09:45:47;;;;;;;10.43;6.00;;;18.80;1.00;;;;;;10427659;28;20224;-82
2022/05/11 09:51:46;;;;;;;4.93;3.58;;;18.80;1.00;;;;;;10424337;28;20197;-82
2022/05/11 09:57:13;;;;;;;4.60;3.60;;;18.80;99.90;;;;;;10423655;28;20293;-81
2022/05/11 10:02:43;;;;;;;4.22;2.70;;;18.80;99.90;;;;;;10424269;28;20205;-82
2022/05/11 10:08:24;;;;;;;6.80;2.95;;;18.90;99.90;;;;;;10424174;28;20197;-89
2022/05/11 10:21:50;;;;;;;7.30;4.57;;;19.00;99.90;;;;;;10424057;28;20208;-82
2022/05/11 10:25:47;;;;;;;4.53;3.05;;;19.70;1.00;;;;;;10422467;28;20285;-82
2022/05/11 10:31:39;;;;;;;6.07;3.78;;;20.10;99.90;;;;;;10436821;28;20204;-85
2022/05/11 10:37:26;;;;;;;8.27;3.35;;;20.40;14.40;;;;;;10437388;28;20300;-83
2022/05/11 10:43:06;;;;;;;10.15;2.50;;;20.80;1.00;;;;;;10421876;28;20216;-85
2022/05/11 10:48:30;;;;;;;7.15;2.40;;;21.10;1.00;;;;;;10452974;28;20227;-85
2022/05/11 10:54:05;;;;;;;3.45;2.63;;;21.70;1.00;;;;;;10436668;28;20504;-86
2022/05/11 10:59:51;;;;;;;6.05;2.47;;;22.00;1.00;;;;;;10453379;28;20228;-83
2022/05/11 11:05:37;;;;;;;6.03;3.15;;;21.90;1.00;;;;;;10422074;28;20284;-86
2022/05/11 11:11:17;;;;;;;11.98;2.80;;;21.90;99.90;;;;;;10436958;28;20200;-83
2022/05/11 11:16:41;;;;;;;7.07;4.25;;;21.90;99.90;;;;;;10417983;28;20216;-83
2022/05/11 11:22:05;;;;;;;4.82;2.88;;;22.20;99.90;;;;;;10407618;28;20232;-87
2022/05/11 11:27:58;;;;;;;12.30;3.92;;;22.40;1.00;;;;;;10379656;28;20236;-84
2022/05/11 11:33:23;;;;;;;5.55;2.95;;;22.60;99.90;;;;;;10394484;28;20233;-86
2022/05/11 11:38:48;;;;;;;4.80;3.38;;;22.60;99.90;;;;;;10393954;28;20228;-86
2022/05/11 11:44:35;;;;;;;5.97;3.58;;;22.30;99.90;;;;;;10411313;28;20279;-85
2022/05/11 11:50:02;;;;;;;5.60;3.33;;;22.10;99.90;;;;;;10442095;28;20215;-83
2022/05/11 11:55:27;;;;;;;5.32;3.75;;;22.10;99.90;;;;;;10433996;28;20197;-83
2022/05/11 12:00:48;;;;;;;5.55;2.90;;;22.00;99.90;;;;;;10394042;28;20233;-85
2022/05/11 12:17:57;;;;;;;3.67;2.10;;;21.60;99.90;;;;;;10430591;28;20256;-91
2022/05/11 12:23:24;;;;;;;2.47;2.28;;;21.40;99.90;;;;;;10392060;28;20345;-83
2022/05/11 12:28:45;;;;;;;3.35;2.60;;;21.30;99.90;;;;;;10413206;28;20283;-82
2022/05/11 12:34:07;;;;;;;3.88;2.85;;;21.30;1.00;;;;;;10415426;28;20255;-84
2022/05/11 12:39:35;;;;;;;10.15;3.45;;;21.10;1.00;;;;;;10416431;28;20302;-83
2022/05/11 12:44:57;;;;;;;5.13;2.90;;;20.90;1.00;;;;;;10408200;28;20225;-87
2022/05/11 12:50:24;;;;;;;5.88;3.08;;;20.70;1.00;;;;;;10417424;28;20224;-83
2022/05/11 12:55:49;;;;;;;5.43;2.55;;;20.50;99.90;;;;;;10418501;28;20510;-87
2022/05/11 13:01:14;;;;;;;5.20;2.13;;;20.30;1.00;;;;;;10405589;28;20240;-86
2022/05/11 13:06:43;;;;;;;5.25;2.40;;;20.10;1.00;;;;;;10417131;28;20192;-85
2022/05/11 13:12:06;;;;;;;6.82;2.60;;;20.00;99.90;;;;;;10391211;28;20193;-86
2022/05/11 13:17:46;;;;;;;7.57;2.72;;;19.90;1.00;;;;;;10406986;28;20240;-87
2022/05/11 13:23:35;;;;;;;7.10;2.78;;;19.90;99.90;;;;;;10431757;28;20291;-87
2022/05/11 13:28:59;;;;;;;2.75;2.53;;;20.00;1.00;;;;;;10409488;28;20205;-83
2022/05/11 13:34:36;;;;;;;6.53;2.30;;;20.00;1.00;;;;;;10362495;28;20311;-85
2022/05/11 13:39:58;;;;;;;3.47;2.42;;;20.00;99.90;;;;;;10391344;28;20248;-84
2022/05/11 13:45:22;;;;;;;5.38;2.50;;;20.20;99.90;;;;;;10421328;28;20192;-85
2022/05/11 13:50:46;;;;;;;4.22;2.30;;;20.40;99.90;;;;;;10409490;28;20199;-87
2022/05/11 13:56:17;;;;;;;4.35;2.90;;;20.60;99.90;;;;;;10404162;28;20263;-85
2022/05/11 14:01:50;;;;;;;5.60;3.45;;;21.00;1.00;;;;;;10377251;28;20236;-83
2022/05/11 14:07:23;;;;;;;6.03;2.65;;;21.20;41.20;;;;;;10413785;28;20204;-90
2022/05/11 14:12:46;;;;;;;8.30;6.32;;;21.30;1.00;;;;;;10416859;28;20196;-86
2022/05/11 14:18:12;;;;;;;4.95;3.33;;;21.40;1.00;;;;;;10416711;28;20220;-88
2022/05/11 14:23:33;;;;;;;4.90;2.78;;;21.50;99.90;;;;;;10466153;28;20219;-85
2022/05/11 14:28:55;;;;;;;5.50;2.70;;;21.60;1.00;;;;;;10424024;28;20222;-82
2022/05/11 14:34:19;;;;;;;4.97;2.45;;;21.70;99.90;;;;;;10423982;28;20254;-85
2022/05/11 14:39:42;;;;;;;6.18;3.28;;;21.70;99.90;;;;;;10401919;28;20225;-84
2022/05/11 14:45:06;;;;;;;6.32;2.83;;;21.80;1.00;;;;;;10407480;28;20204;-89
2022/05/11 14:50:32;;;;;;;10.68;2.38;;;21.70;99.90;;;;;;10437312;28;20228;-84
2022/05/11 14:55:54;;;;;;;5.72;2.53;;;21.60;99.90;;;;;;10408734;28;20227;-84
2022/05/11 15:07:00;;;;;;;6.22;3.38;;;21.50;99.90;;;;;;10426245;28;20238;-84
2022/05/11 15:18:11;;;;;;;3.70;2.60;;;21.40;99.90;;;;;;10425774;28;20417;-85
2022/05/11 15:23:33;;;;;;;4.35;3.08;;;21.30;99.90;;;;;;10409557;28;20251;-83
2022/05/11 15:28:54;;;;;;;3.33;2.72;;;21.40;99.90;;;;;;10404620;28;20569;-86
2022/05/11 15:34:19;;;;;;;4.25;2.70;;;21.50;99.90;;;;;;10425463;28;20228;-91
2022/05/11 15:39:41;;;;;;;7.15;3.20;;;21.50;99.90;;;;;;10437503;28;20292;-85
2022/05/11 15:45:05;;;;;;;5.70;2.95;;;21.50;99.90;;;;;;10407671;28;20196;-86
2022/05/11 15:50:26;;;;;;;4.00;3.00;;;21.40;99.90;;;;;;10424450;28;20196;-85
2022/05/11 15:55:47;;;;;;;9.00;3.10;;;21.30;99.90;;;;;;10425970;28;20398;-85
2022/05/11 16:01:14;;;;;;;3.25;2.90;;;21.20;1.00;;;;;;10412294;28;20239;-92
2022/05/11 16:06:37;;;;;;;6.10;3.45;;;21.30;1.00;;;;;;10424095;28;20227;-84
2022/05/11 16:11:58;;;;;;;7.20;4.75;;;21.20;1.00;;;;;;10426028;28;20271;-86
2022/05/11 16:23:00;;;;;;;5.32;3.70;;;21.00;99.90;;;;;;10424444;28;20226;-90
2022/05/11 16:28:21;;;;;;;5.28;3.28;;;21.20;99.90;;;;;;10414192;28;20196;-87
2022/05/11 16:33:43;;;;;;;8.50;4.70;;;21.20;99.90;;;;;;10437977;28;20309;-92
2022/05/11 16:39:05;;;;;;;4.40;3.53;;;21.20;1.00;;;;;;10410157;28;20231;-91
2022/05/11 16:44:33;;;;;;;6.57;3.90;;;21.00;99.90;;;;;;10406706;28;20219;-91
2022/05/11 16:49:55;;;;;;;4.65;3.67;;;21.00;1.00;;;;;;10398182;28;20205;-88
2022/05/11 16:55:34;;;;;;;4.70;4.30;;;20.90;1.00;;;;;;10423385;28;20199;-91
2022/05/11 17:01:36;;;;;;;6.07;4.10;;;20.80;99.90;;;;;;10428407;28;20534;-89
2022/05/11 17:06:57;;;;;;;9.32;5.25;;;20.80;1.00;;;;;;10423154;28;20192;-87
2022/05/11 17:12:19;;;;;;;7.93;5.70;;;20.90;1.00;;;;;;10422835;28;20207;-91
2022/05/11 17:17:41;;;;;;;10.30;5.68;;;20.80;21.80;;;;;;10422726;28;20218;-89
2022/05/11 17:23:03;;;;;;;6.82;3.60;;;20.80;99.90;;;;;;10408903;28;20223;-87
2022/05/11 17:28:25;;;;;;;5.82;3.58;;;20.70;1.00;;;;;;10431877;28;20193;-92
2022/05/11 17:33:46;;;;;;;3.53;3.22;;;20.80;1.00;;;;;;10422453;28;20250;-87
2022/05/11 17:39:08;;;;;;;3.63;3.33;;;20.70;1.00;;;;;;10422759;28;20236;-92
2022/05/11 17:44:30;;;;;;;7.95;5.53;;;20.70;1.00;;;;;;10421773;28;20212;-91
2022/05/11 17:49:51;;;;;;;10.15;6.70;;;20.70;1.00;;;;;;10400588;28;20391;-89
2022/05/11 17:55:13;;;;;;;11.90;7.85;;;20.60;99.90;;;;;;10406286;28;20201;-92
2022/05/11 18:00:35;;;;;;;15.85;9.40;;;20.50;99.90;;;;;;10396426;28;20221;-88
2022/05/11 18:05:58;;;;;;;15.80;7.15;;;20.30;99.90;;;;;;10469797;28;20203;-88
2022/05/11 18:11:20;;;;;;;9.75;6.30;;;20.20;99.90;;;;;;10452986;28;20196;-91
2022/05/11 18:16:42;;;;;;;6.85;5.25;;;20.10;99.90;;;;;;10429573;28;20207;-87
2022/05/11 18:22:03;;;;;;;7.45;5.03;;;20.00;1.00;;;;;;10429065;28;20226;-90
2022/05/11 18:27:25;;;;;;;5.72;5.13;;;19.90;1.00;;;;;;10428257;28;20203;-89
2022/05/11 18:32:47;;;;;;;7.07;4.60;;;19.80;1.00;;;;;;10442515;28;20282;-86
2022/05/11 18:38:10;;;;;;;6.18;5.57;;;19.70;1.00;;;;;;10428396;28;20239;-91
2022/05/11 18:43:31;;;;;;;7.63;6.05;;;19.60;1.00;;;;;;10414190;28;20195;-88
2022/05/11 18:48:53;;;;;;;8.23;7.22;;;19.30;1.00;;;;;;10427828;28;20231;-87
2022/05/11 18:54:14;;;;;;;8.82;6.97;;;19.20;1.00;;;;;;10427951;28;20204;-91
2022/05/11 18:59:36;;;;;;;11.82;8.40;;;19.00;1.00;;;;;;10413906;28;20223;-89
2022/05/11 19:04:57;;;;;;;10.77;8.20;;;18.80;1.00;;;;;;10428299;28;20196;-88
2022/05/11 19:10:20;;;;;;;17.02;10.52;;;18.70;1.00;;;;;;10431742;28;20283;-86
2022/05/11 19:15:41;;;;;;;15.43;10.48;;;18.50;1.00;;;;;;10416285;28;20200;-89
2022/05/11 19:21:03;;;;;;;14.18;9.65;;;18.40;1.00;;;;;;10426922;28;20408;-91
2022/05/11 19:26:24;;;;;;;14.45;10.07;;;18.30;1.00;;;;;;10426593;28;20275;-87
2022/05/11 19:31:46;;;;;;;16.25;9.90;;;18.30;1.00;;;;;;10412419;28;20239;-87
2022/05/11 19:37:08;;;;;;;15.90;11.20;;;18.30;1.00;;;;;;10426154;28;20510;-89
2022/05/11 19:42:29;;;;;;;17.38;11.98;;;18.30;1.00;;;;;;10425632;28;20417;-87
2022/05/11 19:47:51;;;;;;;17.10;12.77;;;18.10;1.00;;;;;;10411939;28;20211;-88
2022/05/11 19:53:13;;;;;;;20.40;13.48;;;18.00;1.00;;;;;;10425228;28;20256;-83
2022/05/11 19:58:34;;;;;;;17.70;13.35;;;17.80;1.00;;;;;;10411326;28;20223;-88
2022/05/11 20:03:56;;;;;;;19.38;14.48;;;17.70;1.00;;;;;;10425014;28;20216;-90
2022/05/11 20:09:18;;;;;;;21.33;15.70;;;17.70;1.00;;;;;;10411027;28;20521;-86
2022/05/11 20:14:40;;;;;;;33.35;19.88;;;17.60;1.00;;;;;;10423985;28;20385;-86
2022/05/11 20:20:02;;;;;;;28.60;19.63;;;17.50;1.00;;;;;;10410566;28;20228;-88
2022/05/11 20:25:24;;;;;;;27.48;18.20;;;17.40;1.00;;;;;;10410550;28;20427;-89
2022/05/11 20:30:45;;;;;;;41.42;23.73;;;17.30;1.00;;;;;;10410316;28;20564;-89
2022/05/11 20:36:06;;;;;;;41.15;24.45;;;17.20;1.00;;;;;;10423797;28;20255;-88
2022/05/11 20:41:28;;;;;;;33.03;22.20;;;17.10;1.00;;;;;;10437335;28;20270;-88
2022/05/11 20:46:50;;;;;;;34.83;21.13;;;17.00;1.00;;;;;;10437107;28;20217;-90
2022/05/11 20:52:11;;;;;;;26.45;16.55;;;16.90;1.00;;;;;;10409419;28;20200;-89
2022/05/11 20:57:32;;;;;;;20.92;14.32;;;16.80;1.40;;;;;;10436800;28;20218;-89
2022/05/11 21:02:54;;;;;;;16.92;12.98;;;16.60;9.30;;;;;;10409324;28;20484;-90
2022/05/11 21:08:15;;;;;;;16.90;12.10;;;16.50;15.80;;;;;;10437396;28;20493;-88
2022/05/11 21:13:37;;;;;;;19.63;10.80;;;16.40;19.90;;;;;;10423154;28;20218;-88
2022/05/11 21:19:00;;;;;;;17.02;12.27;;;16.40;23.10;;;;;;10408467;28;20306;-89
2022/05/11 21:24:21;;;;;;;14.15;10.80;;;16.20;24.10;;;;;;10409169;28;20207;-91
2022/05/11 21:29:43;;;;;;;15.20;10.50;;;16.10;29.10;;;;;;10417508;28;20219;-90
2022/05/11 21:35:07;;;;;;;18.77;10.40;;;16.00;33.10;;;;;;10431422;28;20234;-91
2022/05/11 21:40:30;;;;;;;16.23;10.15;;;15.90;42.50;;;;;;10417150;28;20298;-90
2022/05/11 21:45:53;;;;;;;15.52;10.40;;;15.90;37.50;;;;;;10416240;28;20199;-88
2022/05/11 21:51:14;;;;;;;12.82;8.57;;;16.00;36.10;;;;;;10430580;28;20509;-89
2022/05/11 21:56:36;;;;;;;11.45;9.05;;;16.00;31.90;;;;;;10444725;28;20196;-90
2022/05/11 22:01:57;;;;;;;22.75;12.80;;;16.00;38.70;;;;;;10430352;28;20241;-89
2022/05/11 22:07:19;;;;;;;21.05;13.35;;;16.00;99.90;;;;;;10402650;28;20271;-87
2022/05/11 22:12:40;;;;;;;17.77;11.95;;;16.00;99.90;;;;;;10385836;28;20250;-87
2022/05/11 22:18:01;;;;;;;15.40;11.25;;;16.00;99.90;;;;;;10443206;28;20500;-88
2022/05/11 22:23:23;;;;;;;18.20;11.40;;;15.90;99.90;;;;;;10415595;28;20281;-87
2022/05/11 22:28:44;;;;;;;18.38;13.02;;;15.90;99.90;;;;;;10428804;28;20402;-88
2022/05/11 22:34:06;;;;;;;17.75;12.52;;;15.80;99.90;;;;;;10414600;28;20470;-90
2022/05/11 22:39:27;;;;;;;19.95;12.55;;;15.70;99.90;;;;;;10414307;28;20298;-87
2022/05/11 22:44:49;;;;;;;16.70;12.23;;;15.70;99.90;;;;;;10426971;28;20257;-87
2022/05/11 22:50:13;;;;;;;17.23;11.73;;;15.70;99.90;;;;;;10427938;28;20204;-85
2022/05/11 22:55:35;;;;;;;15.65;11.80;;;15.60;99.90;;;;;;10427549;28;20275;-84
2022/05/11 23:00:56;;;;;;;13.48;11.13;;;15.60;99.90;;;;;;10441021;28;20615;-85
2022/05/11 23:06:18;;;;;;;21.55;11.88;;;15.60;99.90;;;;;;10435362;28;20190;-91
2022/05/11 23:11:39;;;;;;;15.13;11.23;;;15.60;99.90;;;;;;10443796;28;20207;-90
2022/05/11 23:17:01;;;;;;;20.52;15.20;;;15.70;99.90;;;;;;10427351;28;20206;-89
2022/05/11 23:22:23;;;;;;;20.33;13.40;;;15.60;99.90;;;;;;10440727;28;20234;-88
2022/05/11 23:27:45;;;;;;;19.10;13.43;;;15.60;99.90;;;;;;10426310;28;20282;-91
2022/05/11 23:33:06;;;;;;;15.55;13.05;;;15.70;99.90;;;;;;10425735;28;20257;-89
2022/05/11 23:38:27;;;;;;;17.35;13.60;;;15.70;99.90;;;;;;10426133;28;20458;-84
2022/05/11 23:43:49;;;;;;;18.63;13.32;;;15.60;99.90;;;;;;10425123;28;20198;-84
2022/05/11 23:49:10;;;;;;;16.67;12.60;;;15.60;99.90;;;;;;10439379;28;20240;-84
2022/05/11 23:54:34;;;;;;;16.30;12.23;;;15.50;99.90;;;;;;10425536;28;20202;-90
2022/05/11 23:59:55;;;;;;;12.93;11.48;;;15.50;99.90;;;;;;10411489;28;20226;-85
